Time;durP1;ratioP1;P1;durP2;ratioP2;P2;SDS_P1;SDS_P2;PMS_P1;PMS_P2;Temp;Humidity;BMP_temperature;BMP_pressure;BME280_temperature;BME280_humidity;BME280_pressure;Samples;Min_cycle;Max_cycle;Signal;HPM_P1;HPM_P2
2024/02/20 00:02:21;;;;;;;;;;;;;;;-0.90;91.39;96356.44;4954094;28;19926;-66
2024/02/20 00:04:46;;;;;;;;;;;;;;;-1.06;92.30;96353.84;4953376;28;20020;-66
2024/02/20 00:07:11;;;;;;;;;;;;;;;-1.12;92.51;96366.31;4953523;28;19933;-66
2024/02/20 00:09:36;;;;;;;;;;;;;;;-1.08;93.10;96375.69;4953058;28;20272;-66
2024/02/20 00:12:02;;;;;;;;;;;;;;;-0.84;92.24;96374.41;4953968;28;20491;-66
2024/02/20 00:14:27;;;;;;;;;;;;;;;-0.96;91.39;96363.72;4955163;28;19934;-66
2024/02/20 00:16:53;;;;;;;;;;;;;;;-1.01;91.98;96364.88;4953478;28;20712;-67
2024/02/20 00:19:18;;;;;;;;;;;;;;;-1.15;92.25;96360.44;4952852;28;19993;-66
2024/02/20 00:21:45;;;;;;;;;;;;;;;-0.84;91.69;96354.31;4953885;28;20433;-66
2024/02/20 00:24:10;;;;;;;;;;;;;;;-0.90;91.62;96357.31;4952750;28;19926;-66
2024/02/20 00:26:36;;;;;;;;;;;;;;;-0.88;91.31;96362.44;4952512;28;19930;-65
2024/02/20 00:29:01;;;;;;;;;;;;;;;-1.23;92.75;96364.31;4949667;28;19972;-66
2024/02/20 00:31:28;;;;;;;;;;;;;;;-0.85;91.45;96350.03;4952318;28;20181;-66
2024/02/20 00:33:53;;;;;;;;;;;;;;;-1.12;91.94;96362.88;4951724;28;19922;-66
2024/02/20 00:36:19;;;;;;;;;;;;;;;-1.06;93.11;96362.53;4954191;28;19922;-66
2024/02/20 00:38:44;;;;;;;;;;;;;;;-0.85;90.58;96367.47;4951135;28;19969;-67
2024/02/20 00:41:09;;;;;;;;;;;;;;;-1.27;91.89;96361.94;4952283;28;20164;-66
2024/02/20 00:43:34;;;;;;;;;;;;;;;-1.26;92.69;96377.53;4952741;28;19922;-66
2024/02/20 00:46:01;;;;;;;;;;;;;;;-1.06;91.84;96369.53;4952114;28;19940;-67
2024/02/20 00:48:26;;;;;;;;;;;;;;;-0.90;91.45;96365.16;4951195;28;20383;-66
2024/02/20 00:50:51;;;;;;;;;;;;;;;-1.48;93.84;96378.75;4951981;28;20058;-66
2024/02/20 00:53:17;;;;;;;;;;;;;;;-1.27;93.79;96375.00;4955072;28;20390;-67
2024/02/20 00:55:42;;;;;;;;;;;;;;;-1.15;93.49;96383.97;4956426;28;19918;-67
2024/02/20 00:58:07;;;;;;;;;;;;;;;-1.18;92.08;96381.50;4956116;28;19930;-66
2024/02/20 01:00:33;;;;;;;;;;;;;;;-1.01;92.08;96381.41;4955814;28;19922;-67
2024/02/20 01:02:58;;;;;;;;;;;;;;;-1.04;92.46;96380.72;4955784;28;19984;-66
2024/02/20 01:05:24;;;;;;;;;;;;;;;-1.55;94.52;96385.22;4955411;28;20016;-67
2024/02/20 01:07:49;;;;;;;;;;;;;;;-1.31;93.99;96386.56;4956560;28;19936;-68
2024/02/20 01:10:16;;;;;;;;;;;;;;;-1.12;92.93;96373.34;4955749;28;20071;-66
2024/02/20 01:12:42;;;;;;;;;;;;;;;-1.29;93.32;96382.13;4958684;28;19922;-67
2024/02/20 01:15:07;;;;;;;;;;;;;;;-1.56;92.34;96398.38;4956505;28;19957;-66
2024/02/20 01:17:32;;;;;;;;;;;;;;;-1.46;93.38;96386.47;4955834;28;19926;-65
2024/02/20 01:19:58;;;;;;;;;;;;;;;-1.39;92.20;96389.63;4955909;28;20291;-65
2024/02/20 01:22:24;;;;;;;;;;;;;;;-1.63;93.91;96390.03;4954345;28;19926;-65
2024/02/20 01:24:49;;;;;;;;;;;;;;;-1.16;92.06;96385.72;4956190;28;19958;-65
2024/02/20 01:27:14;;;;;;;;;;;;;;;-1.23;92.10;96386.97;4956336;28;19926;-65
2024/02/20 01:29:42;;;;;;;;;;;;;;;-1.51;93.37;96389.34;4955080;28;20024;-65
2024/02/20 01:32:07;;;;;;;;;;;;;;;-1.62;94.18;96389.91;4955866;28;19930;-65
2024/02/20 01:34:32;;;;;;;;;;;;;;;-1.41;94.11;96387.09;4955291;28;19929;-65
2024/02/20 01:36:58;;;;;;;;;;;;;;;-1.39;92.94;96390.44;4956982;28;19976;-65
2024/02/20 01:39:23;;;;;;;;;;;;;;;-1.15;91.69;96386.56;4956750;28;19922;-65
2024/02/20 01:41:48;;;;;;;;;;;;;;;-0.87;89.91;96385.03;4956492;28;20057;-65
2024/02/20 01:44:13;;;;;;;;;;;;;;;-0.99;90.38;96390.00;4956844;28;19969;-65
2024/02/20 01:46:41;;;;;;;;;;;;;;;-1.01;90.47;96397.09;4956357;28;20417;-65
2024/02/20 01:49:06;;;;;;;;;;;;;;;-0.97;91.24;96388.19;4956276;28;19922;-65
2024/02/20 01:51:32;;;;;;;;;;;;;;;-0.66;88.21;96390.81;4956137;28;19980;-65
2024/02/20 01:53:57;;;;;;;;;;;;;;;-0.78;88.64;96386.31;4955988;28;19928;-65
2024/02/20 01:56:22;;;;;;;;;;;;;;;-0.65;88.58;96384.66;4956314;28;19969;-65
2024/02/20 01:58:48;;;;;;;;;;;;;;;-1.29;90.08;96384.72;4954874;28;19973;-65
2024/02/20 02:01:13;;;;;;;;;;;;;;;-1.17;90.19;96399.72;4951415;28;20193;-65
2024/02/20 02:03:38;;;;;;;;;;;;;;;-1.26;91.27;96405.44;4954866;28;20015;-65
2024/02/20 02:06:04;;;;;;;;;;;;;;;-1.13;90.61;96395.16;4955938;28;19956;-65
2024/02/20 02:08:29;;;;;;;;;;;;;;;-1.29;91.17;96409.06;4956848;28;19965;-65
2024/02/20 02:10:54;;;;;;;;;;;;;;;-1.17;91.01;96404.09;4955656;28;19970;-65
2024/02/20 02:13:20;;;;;;;;;;;;;;;-1.26;91.73;96406.28;4956056;28;20477;-65
2024/02/20 02:15:45;;;;;;;;;;;;;;;-1.47;92.60;96403.94;4958606;28;20453;-65
2024/02/20 02:18:10;;;;;;;;;;;;;;;-1.16;91.85;96400.56;4957526;28;19932;-65
2024/02/20 02:20:35;;;;;;;;;;;;;;;-1.22;90.65;96410.41;4960108;28;19961;-65
2024/02/20 02:23:01;;;;;;;;;;;;;;;-1.28;91.63;96407.31;4949939;28;20144;-65
2024/02/20 02:25:26;;;;;;;;;;;;;;;-1.40;90.79;96412.28;4954902;28;19933;-65
2024/02/20 02:27:52;;;;;;;;;;;;;;;-1.57;91.92;96413.19;4956277;28;19957;-66
2024/02/20 02:30:17;;;;;;;;;;;;;;;-1.40;90.66;96411.41;4955606;28;20051;-67
2024/02/20 02:32:43;;;;;;;;;;;;;;;-1.16;89.97;96419.69;4955527;28;19976;-67
2024/02/20 02:35:09;;;;;;;;;;;;;;;-1.70;91.22;96414.78;4955277;28;20015;-67
2024/02/20 02:37:35;;;;;;;;;;;;;;;-1.34;89.89;96416.31;4955551;28;19926;-67
2024/02/20 02:40:01;;;;;;;;;;;;;;;-1.53;91.64;96425.16;4955360;28;19934;-67
2024/02/20 02:42:26;;;;;;;;;;;;;;;-1.71;90.88;96424.38;4954162;28;19922;-66
2024/02/20 02:44:51;;;;;;;;;;;;;;;-1.95;91.33;96429.09;4955278;28;20399;-67
2024/02/20 02:47:16;;;;;;;;;;;;;;;-2.09;91.98;96430.66;4953632;28;20540;-66
2024/02/20 02:49:42;;;;;;;;;;;;;;;-2.51;93.19;96433.59;4953764;28;19930;-66
2024/02/20 02:52:07;;;;;;;;;;;;;;;-2.06;92.76;96429.66;4954678;28;19965;-66
2024/02/20 02:54:32;;;;;;;;;;;;;;;-1.54;89.71;96441.75;4954668;28;19922;-67
2024/02/20 02:56:57;;;;;;;;;;;;;;;-1.47;90.08;96430.06;4954619;28;20013;-67
2024/02/20 02:59:23;;;;;;;;;;;;;;;-1.06;88.17;96443.56;4948434;28;19970;-66
2024/02/20 03:01:49;;;;;;;;;;;;;;;-1.41;89.09;96439.34;4950170;28;20141;-66
2024/02/20 03:04:14;;;;;;;;;;;;;;;-1.85;89.96;96438.16;4950917;28;20025;-67
2024/02/20 03:06:40;;;;;;;;;;;;;;;-1.38;88.21;96449.63;4951251;28;19953;-67
2024/02/20 03:09:12;;;;;;;;;;;;;;;-1.02;86.13;96445.06;4955850;28;20427;-67
2024/02/20 03:11:37;;;;;;;;;;;;;;;-1.22;86.22;96451.41;4953621;28;20096;-66
2024/02/20 03:14:03;;;;;;;;;;;;;;;-1.48;88.19;96451.03;4955022;28;19933;-66
2024/02/20 03:16:28;;;;;;;;;;;;;;;-1.22;85.99;96444.41;4952367;28;19928;-66
2024/02/20 03:18:54;;;;;;;;;;;;;;;-1.12;85.93;96454.38;4954374;28;19988;-67
2024/02/20 03:21:20;;;;;;;;;;;;;;;-1.75;88.06;96447.19;4968027;28;20098;-66
2024/02/20 03:23:45;;;;;;;;;;;;;;;-1.15;86.77;96460.56;4952584;28;20561;-66
2024/02/20 03:26:10;;;;;;;;;;;;;;;-1.17;87.12;96454.59;4954401;28;19975;-67
2024/02/20 03:28:36;;;;;;;;;;;;;;;-0.96;85.91;96452.63;4947278;28;19936;-67
2024/02/20 03:31:01;;;;;;;;;;;;;;;-1.42;87.37;96462.94;4953015;28;19977;-66
2024/02/20 03:33:29;;;;;;;;;;;;;;;-1.13;87.01;96463.09;4954864;28;19957;-67
2024/02/20 03:35:54;;;;;;;;;;;;;;;-1.53;87.66;96466.13;4954017;28;20021;-66
2024/02/20 03:38:24;;;;;;;;;;;;;;;-1.91;90.69;96462.81;4955447;28;19922;-65
2024/02/20 03:40:49;;;;;;;;;;;;;;;-2.07;92.34;96473.16;4954153;28;21795;-66
2024/02/20 03:43:14;;;;;;;;;;;;;;;-2.34;92.12;96470.19;4952757;28;20342;-65
2024/02/20 03:45:40;;;;;;;;;;;;;;;-2.03;90.99;96479.09;4952925;28;19930;-65
2024/02/20 03:48:06;;;;;;;;;;;;;;;-1.68;90.38;96467.75;4954381;28;19918;-65
2024/02/20 03:50:32;;;;;;;;;;;;;;;-1.79;89.74;96476.16;4954313;28;19966;-65
2024/02/20 03:52:58;;;;;;;;;;;;;;;-1.47;88.63;96486.69;4955076;28;20065;-66
2024/02/20 03:55:23;;;;;;;;;;;;;;;-0.94;86.69;96478.69;4953738;28;19922;-66
2024/02/20 03:57:48;;;;;;;;;;;;;;;-0.96;85.31;96481.38;4954737;28;19938;-66
2024/02/20 04:00:14;;;;;;;;;;;;;;;-1.03;86.29;96480.00;4943309;28;20609;-65
2024/02/20 04:02:40;;;;;;;;;;;;;;;-0.88;85.28;96475.72;4950398;28;19996;-65
2024/02/20 04:05:07;;;;;;;;;;;;;;;-0.88;85.10;96474.88;4952314;28;20442;-66
2024/02/20 04:07:32;;;;;;;;;;;;;;;-0.93;84.82;96471.66;4968393;28;20024;-65
2024/02/20 04:09:57;;;;;;;;;;;;;;;-1.53;88.30;96485.22;4954453;28;20009;-65
2024/02/20 04:12:22;;;;;;;;;;;;;;;-1.01;86.79;96478.16;4954544;28;20306;-65
2024/02/20 04:14:48;;;;;;;;;;;;;;;-1.34;88.27;96479.03;4953611;28;20449;-65
2024/02/20 04:17:13;;;;;;;;;;;;;;;-1.11;86.04;96488.22;4953745;28;19973;-65
2024/02/20 04:19:39;;;;;;;;;;;;;;;-1.21;87.29;96484.44;4954223;28;19930;-65
2024/02/20 04:22:04;;;;;;;;;;;;;;;-1.23;88.20;96489.75;4953315;28;20503;-65
2024/02/20 04:24:29;;;;;;;;;;;;;;;-0.88;86.74;96485.34;4952747;28;20451;-65
2024/02/20 04:26:56;;;;;;;;;;;;;;;-1.01;86.78;96491.22;4953015;28;19972;-65
2024/02/20 04:29:21;;;;;;;;;;;;;;;-0.88;84.99;96495.81;4953483;28;20415;-65
2024/02/20 04:31:47;;;;;;;;;;;;;;;-1.57;88.72;96495.94;4953896;28;20164;-65
2024/02/20 04:34:12;;;;;;;;;;;;;;;-0.99;87.22;96494.56;4954039;28;19932;-65
2024/02/20 04:36:37;;;;;;;;;;;;;;;-1.42;88.27;96499.50;4953631;28;20489;-65
2024/02/20 04:39:03;;;;;;;;;;;;;;;-1.13;88.32;96504.94;4953931;28;19935;-65
2024/02/20 04:41:28;;;;;;;;;;;;;;;-0.97;87.11;96503.22;4953133;28;19937;-65
2024/02/20 04:43:54;;;;;;;;;;;;;;;-1.15;87.75;96507.63;4953368;28;19918;-65
2024/02/20 04:46:19;;;;;;;;;;;;;;;-1.20;87.79;96507.03;4953452;28;19930;-65
2024/02/20 04:48:44;;;;;;;;;;;;;;;-0.88;87.50;96508.88;4953385;28;19922;-67
2024/02/20 04:51:10;;;;;;;;;;;;;;;-0.70;85.64;96507.84;4953304;28;20156;-66
2024/02/20 04:53:35;;;;;;;;;;;;;;;-0.99;86.22;96505.03;4953456;28;19926;-66
2024/02/20 04:56:00;;;;;;;;;;;;;;;-1.59;88.64;96514.28;4953866;28;19965;-66
2024/02/20 04:58:26;;;;;;;;;;;;;;;-1.29;88.92;96508.38;4953236;28;20440;-66
2024/02/20 05:00:51;;;;;;;;;;;;;;;-1.23;89.06;96515.03;4941865;28;19922;-67
2024/02/20 05:03:16;;;;;;;;;;;;;;;-1.18;88.20;96517.41;4953619;28;20029;-67
2024/02/20 05:05:42;;;;;;;;;;;;;;;-1.18;87.41;96514.78;4952916;28;19926;-67
2024/02/20 05:08:07;;;;;;;;;;;;;;;-0.89;86.77;96521.09;4953618;28;19949;-67
2024/02/20 05:10:32;;;;;;;;;;;;;;;-0.41;84.45;96514.97;4953113;28;20012;-66
2024/02/20 05:12:57;;;;;;;;;;;;;;;-0.52;84.06;96520.84;4953182;28;20418;-66
2024/02/20 05:15:23;;;;;;;;;;;;;;;-0.27;82.79;96524.66;4953369;28;19922;-66
2024/02/20 05:17:48;;;;;;;;;;;;;;;-0.89;84.83;96522.84;4953175;28;20035;-67
2024/02/20 05:20:13;;;;;;;;;;;;;;;-0.61;83.56;96523.97;4954069;28;19974;-66
2024/02/20 05:22:39;;;;;;;;;;;;;;;-0.90;85.22;96518.56;4951241;28;19930;-66
2024/02/20 05:25:06;;;;;;;;;;;;;;;-0.89;84.37;96522.84;4940450;28;20138;-67
2024/02/20 05:27:31;;;;;;;;;;;;;;;-0.64;82.99;96524.13;4953147;28;19933;-66
2024/02/20 05:29:57;;;;;;;;;;;;;;;-0.93;83.94;96532.66;4956870;28;19926;-66
2024/02/20 05:32:22;;;;;;;;;;;;;;;-0.46;82.61;96524.88;4953368;28;20300;-67
2024/02/20 05:34:47;;;;;;;;;;;;;;;-0.46;81.57;96528.34;4953578;28;19961;-66
2024/02/20 05:37:12;;;;;;;;;;;;;;;-0.47;81.96;96516.16;4953179;28;20141;-67
2024/02/20 05:39:38;;;;;;;;;;;;;;;-0.54;82.65;96532.31;4955872;28;20078;-66
2024/02/20 05:42:03;;;;;;;;;;;;;;;-0.30;81.64;96524.88;4956169;28;20493;-67
2024/02/20 05:44:28;;;;;;;;;;;;;;;-0.06;79.43;96521.75;4956213;28;20287;-67
2024/02/20 05:46:53;;;;;;;;;;;;;;;-0.07;79.89;96523.53;4956502;28;19926;-67
2024/02/20 05:49:19;;;;;;;;;;;;;;;0.28;78.25;96530.25;4956134;28;20462;-67
2024/02/20 05:51:46;;;;;;;;;;;;;;;0.16;78.76;96525.72;4956741;28;19957;-67
2024/02/20 05:54:11;;;;;;;;;;;;;;;0.17;78.77;96528.25;4956478;28;19926;-68
2024/02/20 05:56:36;;;;;;;;;;;;;;;0.19;77.73;96533.41;4956434;28;19918;-68
2024/02/20 05:59:02;;;;;;;;;;;;;;;0.51;75.99;96530.66;4953381;28;20332;-66
2024/02/20 06:01:27;;;;;;;;;;;;;;;0.42;76.64;96536.44;4947902;28;19922;-67
2024/02/20 06:03:53;;;;;;;;;;;;;;;0.73;75.99;96530.19;4956880;28;19953;-67
2024/02/20 06:06:18;;;;;;;;;;;;;;;0.20;76.74;96540.31;4955763;28;19930;-67
2024/02/20 06:08:44;;;;;;;;;;;;;;;-0.03;78.75;96541.69;4956823;28;19973;-67
2024/02/20 06:11:13;;;;;;;;;;;;;;;0.09;78.03;96548.81;4970273;28;20189;-66
2024/02/20 06:13:38;;;;;;;;;;;;;;;0.21;77.57;96549.91;4955504;28;19952;-67
2024/02/20 06:16:04;;;;;;;;;;;;;;;0.13;77.68;96541.63;4956335;28;19957;-67
2024/02/20 06:18:29;;;;;;;;;;;;;;;0.03;77.53;96541.31;4956179;28;19974;-67
2024/02/20 06:20:54;;;;;;;;;;;;;;;0.42;76.76;96553.03;4956082;28;19957;-67
2024/02/20 06:23:19;;;;;;;;;;;;;;;-0.14;76.54;96553.59;4954173;28;20084;-67
2024/02/20 06:25:45;;;;;;;;;;;;;;;-0.13;77.53;96547.44;4955605;28;19957;-68
2024/02/20 06:28:13;;;;;;;;;;;;;;;-0.39;78.14;96548.91;4955589;28;19989;-68
2024/02/20 06:30:38;;;;;;;;;;;;;;;-0.29;77.77;96550.09;4955536;28;19926;-68
2024/02/20 06:33:03;;;;;;;;;;;;;;;-0.18;77.74;96550.34;4955703;28;19933;-67
2024/02/20 06:35:28;;;;;;;;;;;;;;;0.28;77.07;96545.97;4955670;28;19926;-67
2024/02/20 06:37:54;;;;;;;;;;;;;;;0.43;75.35;96544.22;4955228;28;19995;-68
2024/02/20 06:40:19;;;;;;;;;;;;;;;0.38;74.55;96550.66;4956010;28;20007;-68
2024/02/20 06:42:44;;;;;;;;;;;;;;;0.76;73.42;96544.91;4954561;28;20212;-68
2024/02/20 06:45:09;;;;;;;;;;;;;;;0.98;71.72;96548.81;4955717;28;19930;-68
2024/02/20 06:47:35;;;;;;;;;;;;;;;1.38;71.08;96550.75;4955364;28;20319;-67
2024/02/20 06:50:00;;;;;;;;;;;;;;;1.40;70.59;96553.28;4954658;28;19962;-67
2024/02/20 06:52:26;;;;;;;;;;;;;;;1.21;71.48;96562.28;4954880;28;19980;-67
2024/02/20 06:54:51;;;;;;;;;;;;;;;1.05;72.30;96563.25;4955666;28;19928;-67
2024/02/20 06:57:17;;;;;;;;;;;;;;;0.94;73.28;96568.31;4954130;28;19926;-67
2024/02/20 06:59:42;;;;;;;;;;;;;;;1.46;71.79;96568.59;4951627;28;19922;-68
2024/02/20 07:02:07;;;;;;;;;;;;;;;1.60;70.63;96573.88;4953832;28;20404;-67
2024/02/20 07:04:33;;;;;;;;;;;;;;;2.04;70.37;96572.88;4954901;28;20515;-67
2024/02/20 07:06:58;;;;;;;;;;;;;;;2.09;69.69;96579.53;4953588;28;20017;-68
2024/02/20 07:09:23;;;;;;;;;;;;;;;2.11;69.64;96577.63;4955201;28;20028;-66
2024/02/20 07:11:49;;;;;;;;;;;;;;;2.44;67.66;96574.63;4954608;28;20099;-67
2024/02/20 07:14:15;;;;;;;;;;;;;;;2.77;64.76;96581.19;4954645;28;20130;-66
2024/02/20 07:16:43;;;;;;;;;;;;;;;2.07;67.34;96580.53;4955649;28;19969;-66
2024/02/20 07:19:08;;;;;;;;;;;;;;;1.88;67.39;96587.84;4955129;28;20228;-66
2024/02/20 07:21:33;;;;;;;;;;;;;;;1.64;69.24;96597.31;4954469;28;20006;-67
2024/02/20 07:23:59;;;;;;;;;;;;;;;1.66;70.08;96593.63;4954369;28;19957;-66
2024/02/20 07:26:27;;;;;;;;;;;;;;;1.68;69.19;96589.16;4954242;28;20005;-66
2024/02/20 07:28:52;;;;;;;;;;;;;;;1.81;69.06;96591.81;4955531;28;19996;-66
2024/02/20 07:31:23;;;;;;;;;;;;;;;2.01;68.21;96589.69;4954617;28;20200;-66
2024/02/20 07:33:49;;;;;;;;;;;;;;;2.30;67.29;96600.06;4969586;28;20009;-66
2024/02/20 07:36:14;;;;;;;;;;;;;;;2.40;66.61;96589.78;4955781;28;19949;-66
2024/02/20 07:38:40;;;;;;;;;;;;;;;1.85;68.41;96590.69;4968324;28;20362;-67
2024/02/20 07:41:05;;;;;;;;;;;;;;;2.11;67.55;96589.94;4969423;28;19926;-67
2024/02/20 07:43:30;;;;;;;;;;;;;;;2.43;65.25;96593.97;4950249;28;19926;-66
2024/02/20 07:45:55;;;;;;;;;;;;;;;1.78;66.87;96594.66;4954013;28;20027;-66
2024/02/20 07:48:22;;;;;;;;;;;;;;;1.86;67.03;96587.13;4953660;28;20910;-66
2024/02/20 07:50:48;;;;;;;;;;;;;;;0.59;70.67;96598.34;4953767;28;20271;-66
2024/02/20 07:53:13;;;;;;;;;;;;;;;0.78;70.88;96600.69;4954372;28;19933;-66
2024/02/20 07:55:41;;;;;;;;;;;;;;;0.94;70.45;96597.16;4946746;28;19930;-67
2024/02/20 07:58:06;;;;;;;;;;;;;;;0.78;71.61;96598.06;4949576;28;19933;-66
2024/02/20 08:00:32;;;;;;;;;;;;;;;0.68;72.64;96600.41;4945112;28;20343;-66
2024/02/20 08:02:57;;;;;;;;;;;;;;;0.91;71.69;96594.72;4952908;28;19926;-66
2024/02/20 08:05:23;;;;;;;;;;;;;;;1.20;71.07;96605.22;4952726;28;20217;-67
2024/02/20 08:07:48;;;;;;;;;;;;;;;1.33;70.25;96606.13;4952219;28;20006;-66
2024/02/20 08:10:13;;;;;;;;;;;;;;;1.29;69.78;96609.88;4950192;28;20622;-66
2024/02/20 08:12:39;;;;;;;;;;;;;;;1.34;70.67;96602.59;4954010;28;20391;-66
2024/02/20 08:15:07;;;;;;;;;;;;;;;1.48;69.54;96606.97;4953343;28;20507;-66
2024/02/20 08:17:32;;;;;;;;;;;;;;;1.88;67.60;96606.22;4953840;28;19950;-66
2024/02/20 08:19:58;;;;;;;;;;;;;;;2.23;66.10;96604.88;4953842;28;20036;-66
2024/02/20 08:22:23;;;;;;;;;;;;;;;2.01;67.38;96611.53;4953009;28;19926;-66
2024/02/20 08:24:48;;;;;;;;;;;;;;;2.08;67.31;96617.22;4949598;28;19926;-67
2024/02/20 08:27:14;;;;;;;;;;;;;;;1.71;68.50;96624.84;4943548;28;20189;-67
2024/02/20 08:29:39;;;;;;;;;;;;;;;1.82;68.56;96624.16;4953976;28;20347;-66
2024/02/20 08:32:04;;;;;;;;;;;;;;;1.33;69.78;96621.06;4958697;28;20008;-66
2024/02/20 08:34:30;;;;;;;;;;;;;;;1.41;69.44;96631.06;4953291;28;20269;-66
2024/02/20 08:36:55;;;;;;;;;;;;;;;0.80;71.87;96625.06;4952689;28;19952;-66
2024/02/20 08:39:22;;;;;;;;;;;;;;;0.43;73.24;96628.06;4952788;28;20041;-66
2024/02/20 08:41:48;;;;;;;;;;;;;;;0.07;74.41;96632.72;4952562;28;19934;-67
2024/02/20 08:44:13;;;;;;;;;;;;;;;0.32;74.59;96631.31;4952070;28;19933;-66
2024/02/20 08:46:38;;;;;;;;;;;;;;;1.00;71.59;96630.03;4952773;28;20230;-66
2024/02/20 08:49:04;;;;;;;;;;;;;;;0.90;71.93;96637.59;4953058;28;20442;-66
2024/02/20 08:51:29;;;;;;;;;;;;;;;1.00;71.81;96630.03;4952959;28;19934;-66
2024/02/20 08:53:54;;;;;;;;;;;;;;;0.84;71.76;96626.56;4952207;28;20430;-66
2024/02/20 08:56:22;;;;;;;;;;;;;;;1.15;71.72;96628.25;4953618;28;20387;-66
2024/02/20 08:58:54;;;;;;;;;;;;;;;0.92;72.31;96643.63;4951843;28;19966;-66
2024/02/20 09:01:19;;;;;;;;;;;;;;;1.22;71.56;96646.16;4941496;28;20673;-67
2024/02/20 09:03:44;;;;;;;;;;;;;;;1.67;69.92;96649.63;4952352;28;20195;-66
2024/02/20 09:06:10;;;;;;;;;;;;;;;1.66;69.06;96647.94;4953205;28;19925;-66
2024/02/20 09:08:35;;;;;;;;;;;;;;;1.81;68.66;96641.69;4952741;28;20151;-66
2024/02/20 09:11:03;;;;;;;;;;;;;;;2.11;67.60;96643.31;4952091;28;20454;-67
2024/02/20 09:13:30;;;;;;;;;;;;;;;2.35;66.78;96645.28;4953964;28;19937;-66
2024/02/20 09:15:55;;;;;;;;;;;;;;;1.65;68.29;96651.50;4956998;28;20262;-66
2024/02/20 09:18:20;;;;;;;;;;;;;;;1.97;68.98;96654.69;4956491;28;20009;-66
2024/02/20 09:20:46;;;;;;;;;;;;;;;1.47;69.93;96649.06;4954560;28;19933;-66
2024/02/20 09:23:11;;;;;;;;;;;;;;;1.67;68.48;96650.44;4953537;28;19985;-66
2024/02/20 09:25:37;;;;;;;;;;;;;;;1.54;70.91;96650.41;4954897;28;20466;-66
2024/02/20 09:28:02;;;;;;;;;;;;;;;1.55;70.07;96652.06;4955938;28;19922;-66
2024/02/20 09:30:27;;;;;;;;;;;;;;;1.26;70.53;96646.78;4956469;28;20499;-66
2024/02/20 09:32:52;;;;;;;;;;;;;;;1.33;70.54;96642.88;4956976;28;20415;-66
2024/02/20 09:35:18;;;;;;;;;;;;;;;1.08;72.39;96649.63;4954903;28;19926;-66
2024/02/20 09:37:43;;;;;;;;;;;;;;;1.17;71.56;96639.50;4943492;28;20634;-66
2024/02/20 09:40:08;;;;;;;;;;;;;;;1.30;70.93;96640.41;4953165;28;19971;-66
2024/02/20 09:42:39;;;;;;;;;;;;;;;1.95;69.85;96645.25;4954479;28;20418;-66
2024/02/20 09:45:05;;;;;;;;;;;;;;;2.26;68.54;96646.75;4949429;28;20390;-66
2024/02/20 09:47:30;;;;;;;;;;;;;;;1.86;69.01;96652.78;4966083;28;19962;-66
2024/02/20 09:49:55;;;;;;;;;;;;;;;1.65;71.39;96656.75;4971276;28;19926;-66
2024/02/20 09:52:20;;;;;;;;;;;;;;;1.01;72.97;96655.31;4969697;28;19993;-67
2024/02/20 09:54:49;;;;;;;;;;;;;;;1.34;72.43;96665.56;4956594;28;20173;-66
2024/02/20 09:57:17;;;;;;;;;;;;;;;1.32;72.14;96659.56;4956371;28;19930;-66
2024/02/20 09:59:45;;;;;;;;;;;;;;;1.29;71.65;96658.91;4956105;28;19961;-66
2024/02/20 10:02:16;;;;;;;;;;;;;;;1.13;71.81;96659.00;4970252;28;20414;-66
2024/02/20 10:04:41;;;;;;;;;;;;;;;1.26;72.06;96657.28;4956281;28;19933;-66
2024/02/20 10:07:06;;;;;;;;;;;;;;;1.99;70.63;96662.50;4963153;28;19930;-66
2024/02/20 10:09:31;;;;;;;;;;;;;;;2.58;69.17;96663.13;4952654;28;19965;-67
2024/02/20 10:11:57;;;;;;;;;;;;;;;2.64;68.42;96657.44;4956216;28;20584;-66
2024/02/20 10:14:28;;;;;;;;;;;;;;;2.51;67.03;96660.03;4955409;28;19949;-66
2024/02/20 10:17:03;;;;;;;;;;;;;;;1.34;70.50;96665.56;4955982;28;20060;-65
2024/02/20 10:19:28;;;;;;;;;;;;;;;0.82;74.09;96659.06;4955661;28;19961;-66
2024/02/20 10:21:53;;;;;;;;;;;;;;;1.09;73.03;96659.16;4955860;28;20147;-66
2024/02/20 10:24:19;;;;;;;;;;;;;;;1.03;72.79;96659.56;4953238;28;20633;-65
2024/02/20 10:26:47;;;;;;;;;;;;;;;0.66;74.41;96665.19;4949765;28;19931;-66
2024/02/20 10:29:13;;;;;;;;;;;;;;;0.63;75.26;96659.28;4948940;28;19952;-67
2024/02/20 10:31:39;;;;;;;;;;;;;;;1.42;73.15;96645.84;4955895;28;19926;-66
2024/02/20 10:34:04;;;;;;;;;;;;;;;1.67;72.00;96645.19;4955452;28;19992;-66
2024/02/20 10:36:29;;;;;;;;;;;;;;;2.54;69.79;96646.69;4956117;28;19942;-65
2024/02/20 10:39:04;;;;;;;;;;;;;;;2.27;69.22;96647.56;4955083;28;20231;-67
2024/02/20 10:41:29;;;;;;;;;;;;;;;2.09;67.82;96633.84;4954871;28;19926;-67
2024/02/20 10:43:54;;;;;;;;;;;;;;;2.76;66.80;96638.19;4954892;28;20416;-68
2024/02/20 10:46:20;;;;;;;;;;;;;;;2.74;66.47;96640.09;4969725;28;19926;-67
2024/02/20 10:48:46;;;;;;;;;;;;;;;2.63;67.28;96639.97;4969379;28;19926;-67
2024/02/20 10:51:12;;;;;;;;;;;;;;;2.56;67.97;96647.44;4955420;28;20273;-67
2024/02/20 10:53:37;;;;;;;;;;;;;;;2.89;67.13;96643.47;4968807;28;20212;-67
2024/02/20 10:56:04;;;;;;;;;;;;;;;2.99;66.04;96642.88;4955825;28;20262;-67
2024/02/20 10:58:29;;;;;;;;;;;;;;;2.83;65.42;96646.53;4969431;28;19940;-67
2024/02/20 11:00:55;;;;;;;;;;;;;;;2.80;65.92;96641.47;4958750;28;20510;-68
2024/02/20 11:03:20;;;;;;;;;;;;;;;2.93;66.18;96649.38;4954474;28;19926;-67
2024/02/20 11:05:45;;;;;;;;;;;;;;;2.98;66.05;96641.16;4949942;28;19926;-67
2024/02/20 11:08:10;;;;;;;;;;;;;;;3.09;65.22;96633.38;4952833;28;20545;-67
2024/02/20 11:10:36;;;;;;;;;;;;;;;2.93;67.09;96624.84;4955030;28;20164;-67
2024/02/20 11:13:11;;;;;;;;;;;;;;;3.77;62.77;96617.28;4952381;28;20037;-67
2024/02/20 11:15:36;;;;;;;;;;;;;;;4.11;60.97;96621.88;4943927;28;20165;-67
2024/02/20 11:18:01;;;;;;;;;;;;;;;3.99;60.49;96614.88;4954493;28;20142;-67
2024/02/20 11:20:27;;;;;;;;;;;;;;;3.14;63.51;96609.38;4954344;28;20128;-67
2024/02/20 11:22:52;;;;;;;;;;;;;;;4.05;60.16;96622.34;4952272;28;19922;-67
2024/02/20 11:25:21;;;;;;;;;;;;;;;4.32;60.72;96613.38;4952530;28;19972;-67
2024/02/20 11:27:47;;;;;;;;;;;;;;;3.66;59.97;96604.91;4953974;28;20036;-67
2024/02/20 11:30:19;;;;;;;;;;;;;;;4.81;59.35;96606.19;4954248;28;19926;-67
2024/02/20 11:32:45;;;;;;;;;;;;;;;4.71;58.94;96611.34;4954583;28;19921;-67
2024/02/20 11:35:20;;;;;;;;;;;;;;;4.70;58.61;96609.63;4954577;28;20248;-67
2024/02/20 11:37:47;;;;;;;;;;;;;;;4.15;60.78;96614.63;4951736;28;19933;-67
2024/02/20 11:40:20;;;;;;;;;;;;;;;3.77;61.31;96609.38;4953956;28;20384;-68
2024/02/20 11:42:45;;;;;;;;;;;;;;;3.78;61.11;96607.59;4953780;28;20199;-67
2024/02/20 11:45:19;;;;;;;;;;;;;;;3.99;61.09;96601.72;4954565;28;20444;-67
2024/02/20 11:47:45;;;;;;;;;;;;;;;3.46;61.45;96610.72;4954367;28;19930;-66
2024/02/20 11:50:11;;;;;;;;;;;;;;;3.79;61.84;96594.31;4969192;28;19930;-67
2024/02/20 11:52:37;;;;;;;;;;;;;;;3.74;61.12;96598.25;4953973;28;19922;-66
2024/02/20 11:55:06;;;;;;;;;;;;;;;3.59;62.59;96595.75;4954132;28;19926;-67
2024/02/20 11:57:32;;;;;;;;;;;;;;;3.63;61.47;96584.03;4953423;28;20427;-67
2024/02/20 11:59:57;;;;;;;;;;;;;;;3.05;62.79;96581.91;4944435;28;19933;-67
2024/02/20 12:02:23;;;;;;;;;;;;;;;3.33;63.92;96582.59;4953984;28;20396;-66
2024/02/20 12:04:55;;;;;;;;;;;;;;;3.88;61.66;96570.88;4968561;28;19949;-66
2024/02/20 12:07:25;;;;;;;;;;;;;;;3.71;60.73;96569.47;4953781;28;19941;-68
2024/02/20 12:09:54;;;;;;;;;;;;;;;4.27;59.43;96568.88;4952687;28;20356;-67
2024/02/20 12:12:30;;;;;;;;;;;;;;;3.85;60.60;96581.66;4953488;28;20110;-67
2024/02/20 12:14:58;;;;;;;;;;;;;;;3.92;60.91;96578.44;4950823;28;19937;-67
2024/02/20 12:17:27;;;;;;;;;;;;;;;3.67;61.10;96571.47;4953007;28;19949;-67
2024/02/20 12:20:02;;;;;;;;;;;;;;;4.09;60.30;96565.84;4953429;28;20316;-68
2024/02/20 12:22:28;;;;;;;;;;;;;;;4.49;58.57;96561.97;4951186;28;19970;-67
2024/02/20 12:25:03;;;;;;;;;;;;;;;4.53;58.98;96560.78;4956690;28;20646;-68
2024/02/20 12:27:28;;;;;;;;;;;;;;;4.31;58.37;96561.56;4959768;28;19933;-68
2024/02/20 12:29:54;;;;;;;;;;;;;;;3.76;60.07;96552.38;4952592;28;19925;-67
2024/02/20 12:32:19;;;;;;;;;;;;;;;4.82;56.76;96548.97;4951628;28;19931;-68
2024/02/20 12:34:44;;;;;;;;;;;;;;;5.45;55.92;96539.75;4949967;28;20036;-68
2024/02/20 12:37:09;;;;;;;;;;;;;;;4.58;57.96;96557.81;4952336;28;19973;-68
2024/02/20 12:39:35;;;;;;;;;;;;;;;4.06;59.70;96553.69;4955024;28;19932;-68
2024/02/20 12:42:00;;;;;;;;;;;;;;;4.86;57.75;96537.22;4951707;28;19977;-68
2024/02/20 12:44:25;;;;;;;;;;;;;;;4.79;55.74;96541.28;4953836;28;20077;-68
2024/02/20 12:46:51;;;;;;;;;;;;;;;5.37;55.18;96542.16;4949386;28;20203;-68